sensor_id;sensor_type;location;lat;lon;timestamp;temperature;humidity
796;DHT22;381;48.770;9.188;2023-07-31T00:29:56;18.40;99.90
796;DHT22;381;48.770;9.188;2023-07-31T00:43:43;18.40;99.90
796;DHT22;381;48.770;9.188;2023-07-31T04:17:33;18.20;99.90
796;DHT22;381;48.770;9.188;2023-07-31T04:22:35;18.30;99.90
796;DHT22;381;48.770;9.188;2023-07-31T04:27:37;18.40;99.90
796;DHT22;381;48.770;9.188;2023-07-31T04:32:40;18.50;99.90
796;DHT22;381;48.770;9.188;2023-07-31T04:37:42;18.60;99.90
796;DHT22;381;48.770;9.188;2023-07-31T04:42:45;18.60;99.90
796;DHT22;381;48.770;9.188;2023-07-31T04:47:48;18.70;99.90
796;DHT22;381;48.770;9.188;2023-07-31T04:52:50;18.70;99.90
796;DHT22;381;48.770;9.188;2023-07-31T04:57:53;18.80;99.90
796;DHT22;381;48.770;9.188;2023-07-31T05:03:02;18.90;99.90
796;DHT22;381;48.770;9.188;2023-07-31T05:08:12;19.00;99.90
796;DHT22;381;48.770;9.188;2023-07-31T05:13:19;19.00;99.90
796;DHT22;381;48.770;9.188;2023-07-31T05:18:24;19.00;99.90
796;DHT22;381;48.770;9.188;2023-07-31T05:23:26;19.00;99.90
796;DHT22;381;48.770;9.188;2023-07-31T05:28:30;19.00;99.90
796;DHT22;381;48.770;9.188;2023-07-31T05:33:39;19.00;99.90
796;DHT22;381;48.770;9.188;2023-07-31T05:38:57;19.00;99.90
796;DHT22;381;48.770;9.188;2023-07-31T05:44:09;18.90;99.90
796;DHT22;381;48.770;9.188;2023-07-31T05:49:13;19.00;99.90
796;DHT22;381;48.770;9.188;2023-07-31T05:54:15;19.10;99.90
796;DHT22;381;48.770;9.188;2023-07-31T05:59:17;19.30;99.90
796;DHT22;381;48.770;9.188;2023-07-31T06:04:21;19.40;99.90
796;DHT22;381;48.770;9.188;2023-07-31T06:09:26;19.60;99.90
796;DHT22;381;48.770;9.188;2023-07-31T06:14:28;19.70;99.90
796;DHT22;381;48.770;9.188;2023-07-31T06:19:31;19.80;99.90
796;DHT22;381;48.770;9.188;2023-07-31T06:24:33;20.00;99.90
796;DHT22;381;48.770;9.188;2023-07-31T06:29:35;20.20;99.90
796;DHT22;381;48.770;9.188;2023-07-31T06:34:39;20.30;99.90
796;DHT22;381;48.770;9.188;2023-07-31T06:39:41;20.50;99.90
796;DHT22;381;48.770;9.188;2023-07-31T06:44:43;20.80;99.80
796;DHT22;381;48.770;9.188;2023-07-31T06:49:46;21.00;98.80
796;DHT22;381;48.770;9.188;2023-07-31T06:55:00;21.00;98.70
796;DHT22;381;48.770;9.188;2023-07-31T07:00:05;21.10;99.30
796;DHT22;381;48.770;9.188;2023-07-31T07:05:09;21.20;98.70
796;DHT22;381;48.770;9.188;2023-07-31T07:10:12;21.50;99.10
796;DHT22;381;48.770;9.188;2023-07-31T07:15:14;21.60;98.30
796;DHT22;381;48.770;9.188;2023-07-31T07:20:17;21.70;97.90
796;DHT22;381;48.770;9.188;2023-07-31T07:25:20;21.90;97.60
796;DHT22;381;48.770;9.188;2023-07-31T07:30:22;22.00;97.20
796;DHT22;381;48.770;9.188;2023-07-31T07:35:27;22.30;97.00
796;DHT22;381;48.770;9.188;2023-07-31T07:40:29;22.60;97.10
796;DHT22;381;48.770;9.188;2023-07-31T07:45:31;22.70;95.60
796;DHT22;381;48.770;9.188;2023-07-31T07:50:35;22.80;95.60
796;DHT22;381;48.770;9.188;2023-07-31T07:55:37;22.90;95.40
796;DHT22;381;48.770;9.188;2023-07-31T08:00:39;23.10;95.50
796;DHT22;381;48.770;9.188;2023-07-31T08:05:43;23.30;95.40
796;DHT22;381;48.770;9.188;2023-07-31T08:10:45;23.50;95.50
796;DHT22;381;48.770;9.188;2023-07-31T08:15:47;23.80;94.20
796;DHT22;381;48.770;9.188;2023-07-31T08:20:51;24.10;94.00
796;DHT22;381;48.770;9.188;2023-07-31T08:25:53;24.40;93.90
796;DHT22;381;48.770;9.188;2023-07-31T08:30:55;24.80;92.00
796;DHT22;381;48.770;9.188;2023-07-31T08:35:59;25.10;91.50
796;DHT22;381;48.770;9.188;2023-07-31T08:41:03;25.50;91.50
796;DHT22;381;48.770;9.188;2023-07-31T08:46:05;25.90;90.40
796;DHT22;381;48.770;9.188;2023-07-31T08:51:09;26.10;89.00
796;DHT22;381;48.770;9.188;2023-07-31T08:56:11;26.20;87.20
796;DHT22;381;48.770;9.188;2023-07-31T09:01:16;26.10;89.20
796;DHT22;381;48.770;9.188;2023-07-31T09:06:21;26.10;87.60
796;DHT22;381;48.770;9.188;2023-07-31T09:11:25;26.10;87.40
796;DHT22;381;48.770;9.188;2023-07-31T09:16:29;26.00;86.30
796;DHT22;381;48.770;9.188;2023-07-31T09:21:34;26.00;87.50
796;DHT22;381;48.770;9.188;2023-07-31T09:26:53;25.90;89.10
796;DHT22;381;48.770;9.188;2023-07-31T09:31:56;26.00;87.50
796;DHT22;381;48.770;9.188;2023-07-31T09:37:01;26.00;88.40
796;DHT22;381;48.770;9.188;2023-07-31T09:42:05;25.80;89.20
796;DHT22;381;48.770;9.188;2023-07-31T09:47:08;25.60;87.40
796;DHT22;381;48.770;9.188;2023-07-31T09:52:25;25.30;88.40
796;DHT22;381;48.770;9.188;2023-07-31T09:57:28;25.30;89.40
796;DHT22;381;48.770;9.188;2023-07-31T10:02:30;25.70;89.60
796;DHT22;381;48.770;9.188;2023-07-31T10:07:37;26.00;88.50
796;DHT22;381;48.770;9.188;2023-07-31T10:12:40;26.30;88.20
796;DHT22;381;48.770;9.188;2023-07-31T10:17:43;26.50;82.90
796;DHT22;381;48.770;9.188;2023-07-31T10:22:48;27.10;83.70
796;DHT22;381;48.770;9.188;2023-07-31T10:27:50;27.30;81.20
796;DHT22;381;48.770;9.188;2023-07-31T10:32:54;27.10;83.50
796;DHT22;381;48.770;9.188;2023-07-31T10:38:09;26.90;81.90
796;DHT22;381;48.770;9.188;2023-07-31T10:43:24;26.50;81.80
796;DHT22;381;48.770;9.188;2023-07-31T10:48:33;26.20;82.80
796;DHT22;381;48.770;9.188;2023-07-31T10:53:36;26.00;81.50
796;DHT22;381;48.770;9.188;2023-07-31T10:58:39;25.90;84.40
796;DHT22;381;48.770;9.188;2023-07-31T11:03:42;25.90;83.10
796;DHT22;381;48.770;9.188;2023-07-31T11:08:46;25.70;85.40
796;DHT22;381;48.770;9.188;2023-07-31T11:13:50;25.50;83.30
796;DHT22;381;48.770;9.188;2023-07-31T11:18:53;25.20;84.50
796;DHT22;381;48.770;9.188;2023-07-31T11:23:58;25.00;85.80
796;DHT22;381;48.770;9.188;2023-07-31T11:29:01;24.90;88.00
796;DHT22;381;48.770;9.188;2023-07-31T11:34:06;24.80;86.70
796;DHT22;381;48.770;9.188;2023-07-31T11:39:10;24.70;85.90
796;DHT22;381;48.770;9.188;2023-07-31T11:44:12;24.40;86.80
796;DHT22;381;48.770;9.188;2023-07-31T11:49:15;24.10;87.70
796;DHT22;381;48.770;9.188;2023-07-31T11:54:19;24.20;88.50
796;DHT22;381;48.770;9.188;2023-07-31T11:59:21;24.30;90.00
796;DHT22;381;48.770;9.188;2023-07-31T12:04:24;24.60;88.70
796;DHT22;381;48.770;9.188;2023-07-31T12:09:28;24.90;88.50
796;DHT22;381;48.770;9.188;2023-07-31T12:14:30;25.10;89.70
796;DHT22;381;48.770;9.188;2023-07-31T12:19:32;25.30;88.00
796;DHT22;381;48.770;9.188;2023-07-31T12:24:35;25.40;86.00
796;DHT22;381;48.770;9.188;2023-07-31T12:29:38;25.30;86.00
796;DHT22;381;48.770;9.188;2023-07-31T12:34:42;25.20;87.20
796;DHT22;381;48.770;9.188;2023-07-31T12:39:46;25.10;88.40
796;DHT22;381;48.770;9.188;2023-07-31T12:44:48;25.10;86.80
796;DHT22;381;48.770;9.188;2023-07-31T12:49:50;24.90;87.90
796;DHT22;381;48.770;9.188;2023-07-31T12:54:53;24.70;87.20
796;DHT22;381;48.770;9.188;2023-07-31T12:59:56;24.60;87.30
796;DHT22;381;48.770;9.188;2023-07-31T13:04:58;24.50;88.90
796;DHT22;381;48.770;9.188;2023-07-31T13:10:01;24.50;90.60
796;DHT22;381;48.770;9.188;2023-07-31T13:15:04;24.50;87.30
796;DHT22;381;48.770;9.188;2023-07-31T13:20:08;24.60;89.10
796;DHT22;381;48.770;9.188;2023-07-31T13:25:11;24.60;90.10
796;DHT22;381;48.770;9.188;2023-07-31T13:30:13;24.60;90.50
796;DHT22;381;48.770;9.188;2023-07-31T13:35:16;24.70;89.70
796;DHT22;381;48.770;9.188;2023-07-31T13:40:19;24.80;88.00
796;DHT22;381;48.770;9.188;2023-07-31T13:45:21;24.90;89.80
796;DHT22;381;48.770;9.188;2023-07-31T13:50:24;25.00;90.10
796;DHT22;381;48.770;9.188;2023-07-31T13:55:27;25.00;90.60
796;DHT22;381;48.770;9.188;2023-07-31T14:00:29;25.10;88.90
796;DHT22;381;48.770;9.188;2023-07-31T14:05:32;25.00;88.40
796;DHT22;381;48.770;9.188;2023-07-31T14:10:36;25.10;90.00
796;DHT22;381;48.770;9.188;2023-07-31T14:15:39;25.10;86.80
796;DHT22;381;48.770;9.188;2023-07-31T14:20:41;25.00;85.70
796;DHT22;381;48.770;9.188;2023-07-31T14:25:45;25.00;89.00
796;DHT22;381;48.770;9.188;2023-07-31T14:30:47;25.00;89.30
796;DHT22;381;48.770;9.188;2023-07-31T14:35:49;25.00;88.30
796;DHT22;381;48.770;9.188;2023-07-31T14:40:52;25.00;90.70
796;DHT22;381;48.770;9.188;2023-07-31T14:45:54;25.00;90.40
796;DHT22;381;48.770;9.188;2023-07-31T14:51:00;25.00;90.50
796;DHT22;381;48.770;9.188;2023-07-31T14:56:04;25.00;90.40
796;DHT22;381;48.770;9.188;2023-07-31T15:01:06;25.00;90.80
796;DHT22;381;48.770;9.188;2023-07-31T15:06:08;25.00;91.00
796;DHT22;381;48.770;9.188;2023-07-31T15:11:12;24.90;90.70
796;DHT22;381;48.770;9.188;2023-07-31T15:16:16;24.90;88.00
796;DHT22;381;48.770;9.188;2023-07-31T15:21:18;24.90;89.70
796;DHT22;381;48.770;9.188;2023-07-31T15:26:21;24.80;88.40
796;DHT22;381;48.770;9.188;2023-07-31T15:31:24;24.80;87.90
796;DHT22;381;48.770;9.188;2023-07-31T15:36:26;24.80;87.00
796;DHT22;381;48.770;9.188;2023-07-31T15:41:30;24.70;87.60
796;DHT22;381;48.770;9.188;2023-07-31T15:46:32;24.60;87.80
796;DHT22;381;48.770;9.188;2023-07-31T15:51:34;24.50;88.90
796;DHT22;381;48.770;9.188;2023-07-31T15:56:38;24.40;87.50
796;DHT22;381;48.770;9.188;2023-07-31T16:01:40;24.30;89.40
796;DHT22;381;48.770;9.188;2023-07-31T16:06:42;24.20;88.40
796;DHT22;381;48.770;9.188;2023-07-31T16:11:45;24.10;90.00
796;DHT22;381;48.770;9.188;2023-07-31T16:16:48;24.10;89.90
796;DHT22;381;48.770;9.188;2023-07-31T16:21:51;24.00;90.40
796;DHT22;381;48.770;9.188;2023-07-31T16:26:54;24.00;88.80
796;DHT22;381;48.770;9.188;2023-07-31T16:31:56;24.00;88.20
796;DHT22;381;48.770;9.188;2023-07-31T16:36:59;23.90;87.90
796;DHT22;381;48.770;9.188;2023-07-31T16:42:03;23.90;90.00
796;DHT22;381;48.770;9.188;2023-07-31T16:47:05;23.80;89.20
796;DHT22;381;48.770;9.188;2023-07-31T16:52:08;23.80;90.90
796;DHT22;381;48.770;9.188;2023-07-31T16:57:11;23.70;90.50
796;DHT22;381;48.770;9.188;2023-07-31T17:02:13;23.70;90.30
796;DHT22;381;48.770;9.188;2023-07-31T17:07:16;23.70;90.70
796;DHT22;381;48.770;9.188;2023-07-31T17:12:20;23.70;90.20
796;DHT22;381;48.770;9.188;2023-07-31T17:17:22;23.70;90.00
796;DHT22;381;48.770;9.188;2023-07-31T17:22:25;23.60;92.50
796;DHT22;381;48.770;9.188;2023-07-31T17:27:29;23.60;92.60
796;DHT22;381;48.770;9.188;2023-07-31T17:32:31;23.50;93.90
796;DHT22;381;48.770;9.188;2023-07-31T17:37:33;23.40;93.30
796;DHT22;381;48.770;9.188;2023-07-31T17:42:36;23.40;93.10
796;DHT22;381;48.770;9.188;2023-07-31T17:47:39;23.30;92.50
796;DHT22;381;48.770;9.188;2023-07-31T17:52:41;23.30;93.30
796;DHT22;381;48.770;9.188;2023-07-31T17:57:44;23.20;95.20
796;DHT22;381;48.770;9.188;2023-07-31T18:02:46;23.10;96.80
796;DHT22;381;48.770;9.188;2023-07-31T18:07:48;23.10;96.20
796;DHT22;381;48.770;9.188;2023-07-31T18:12:53;23.00;95.00
796;DHT22;381;48.770;9.188;2023-07-31T18:17:57;22.90;94.70
796;DHT22;381;48.770;9.188;2023-07-31T18:23:00;22.90;94.60
796;DHT22;381;48.770;9.188;2023-07-31T18:28:03;22.70;94.50
796;DHT22;381;48.770;9.188;2023-07-31T18:33:05;22.70;94.70
796;DHT22;381;48.770;9.188;2023-07-31T18:38:08;22.60;94.10
796;DHT22;381;48.770;9.188;2023-07-31T18:43:13;22.50;94.60
796;DHT22;381;48.770;9.188;2023-07-31T18:48:15;22.50;95.90
796;DHT22;381;48.770;9.188;2023-07-31T18:53:17;22.30;96.90
796;DHT22;381;48.770;9.188;2023-07-31T18:58:21;22.20;98.60
796;DHT22;381;48.770;9.188;2023-07-31T19:03:23;21.90;99.90
796;DHT22;381;48.770;9.188;2023-07-31T19:08:25;21.50;99.90
796;DHT22;381;48.770;9.188;2023-07-31T19:13:29;21.20;99.90
796;DHT22;381;48.770;9.188;2023-07-31T19:18:31;20.70;99.90
796;DHT22;381;48.770;9.188;2023-07-31T19:23:33;20.40;99.90
796;DHT22;381;48.770;9.188;2023-07-31T19:28:37;20.10;99.90
796;DHT22;381;48.770;9.188;2023-07-31T19:33:39;19.90;99.90
796;DHT22;381;48.770;9.188;2023-07-31T19:38:41;19.70;99.90
796;DHT22;381;48.770;9.188;2023-07-31T19:43:44;19.50;99.90
796;DHT22;381;48.770;9.188;2023-07-31T19:48:47;19.40;99.90
796;DHT22;381;48.770;9.188;2023-07-31T19:53:49;19.40;99.90
796;DHT22;381;48.770;9.188;2023-07-31T19:58:52;19.40;99.90
796;DHT22;381;48.770;9.188;2023-07-31T20:03:54;19.40;99.90
796;DHT22;381;48.770;9.188;2023-07-31T20:08:56;19.40;99.90
796;DHT22;381;48.770;9.188;2023-07-31T20:14:04;19.50;99.90
796;DHT22;381;48.770;9.188;2023-07-31T20:19:06;19.50;99.90
796;DHT22;381;48.770;9.188;2023-07-31T20:24:09;19.40;99.90
796;DHT22;381;48.770;9.188;2023-07-31T20:29:13;19.40;99.90
796;DHT22;381;48.770;9.188;2023-07-31T20:34:15;19.40;99.90
796;DHT22;381;48.770;9.188;2023-07-31T20:39:17;19.40;99.90
796;DHT22;381;48.770;9.188;2023-07-31T20:44:21;19.40;99.90
796;DHT22;381;48.770;9.188;2023-07-31T20:49:23;19.40;99.90
796;DHT22;381;48.770;9.188;2023-07-31T20:54:25;19.40;99.90
796;DHT22;381;48.770;9.188;2023-07-31T20:59:28;19.40;99.90
796;DHT22;381;48.770;9.188;2023-07-31T21:04:30;19.40;99.90
796;DHT22;381;48.770;9.188;2023-07-31T21:09:33;19.40;99.90
796;DHT22;381;48.770;9.188;2023-07-31T21:14:37;19.40;99.90
796;DHT22;381;48.770;9.188;2023-07-31T21:19:42;19.40;99.90
796;DHT22;381;48.770;9.188;2023-07-31T21:24:44;19.40;99.90
796;DHT22;381;48.770;9.188;2023-07-31T21:29:48;19.40;99.90
796;DHT22;381;48.770;9.188;2023-07-31T21:34:50;19.40;99.90
796;DHT22;381;48.770;9.188;2023-07-31T21:39:52;19.40;99.90
796;DHT22;381;48.770;9.188;2023-07-31T21:44:55;19.40;99.90
796;DHT22;381;48.770;9.188;2023-07-31T21:49:57;19.50;99.90
796;DHT22;381;48.770;9.188;2023-07-31T21:55:00;19.50;99.90
796;DHT22;381;48.770;9.188;2023-07-31T22:00:05;19.50;99.90
796;DHT22;381;48.770;9.188;2023-07-31T22:05:07;19.50;99.90
796;DHT22;381;48.770;9.188;2023-07-31T22:10:10;19.50;99.90
796;DHT22;381;48.770;9.188;2023-07-31T22:15:13;19.60;99.90
796;DHT22;381;48.770;9.188;2023-07-31T22:20:15;19.60;99.90
796;DHT22;381;48.770;9.188;2023-07-31T22:25:18;19.60;99.90
796;DHT22;381;48.770;9.188;2023-07-31T22:30:21;19.70;99.90
796;DHT22;381;48.770;9.188;2023-07-31T22:35:23;19.70;99.90
796;DHT22;381;48.770;9.188;2023-07-31T22:40:25;19.80;99.90
796;DHT22;381;48.770;9.188;2023-07-31T22:45:29;19.80;99.90
796;DHT22;381;48.770;9.188;2023-07-31T22:50:31;19.70;99.90
796;DHT22;381;48.770;9.188;2023-07-31T22:55:33;19.70;99.90
796;DHT22;381;48.770;9.188;2023-07-31T23:00:37;19.60;99.90
796;DHT22;381;48.770;9.188;2023-07-31T23:05:39;19.70;99.90
796;DHT22;381;48.770;9.188;2023-07-31T23:10:41;19.70;99.90
796;DHT22;381;48.770;9.188;2023-07-31T23:15:44;19.60;99.90
796;DHT22;381;48.770;9.188;2023-07-31T23:20:49;19.60;99.90
796;DHT22;381;48.770;9.188;2023-07-31T23:25:52;19.60;99.90
796;DHT22;381;48.770;9.188;2023-07-31T23:31:01;19.60;99.90
796;DHT22;381;48.770;9.188;2023-07-31T23:36:08;19.70;99.90
796;DHT22;381;48.770;9.188;2023-07-31T23:41:10;19.80;99.90
796;DHT22;381;48.770;9.188;2023-07-31T23:46:13;19.80;99.90
796;DHT22;381;48.770;9.188;2023-07-31T23:51:16;19.80;99.90
796;DHT22;381;48.770;9.188;2023-07-31T23:56:18;19.90;99.90
